Time,TemperatureF,DewpointF,PressureIn,WindDirection,WindDirectionDegrees,WindSpeedMPH,WindSpeedGustMPH,Humidity,HourlyPrecipIn,Conditions,Clouds,dailyrainin,SoftwareType,DateUTC
2013-01-29 00:00:00,48.8,47.7,29.62,ENE,68,0.0,3.0,96,0.00,,,0.00,WeatherCatV1.02B3,2013-01-29 00:00:00,
2013-01-29 00:05:00,49.4,47.8,29.64,East,90,0.0,5.0,94,0.00,,,0.00,WeatherCatV1.02B3,2013-01-29 00:05:00,
2013-01-29 00:10:00,49.4,47.8,29.64,East,90,0.0,5.0,94,0.00,,,0.00,WeatherCatV1.02B3,2013-01-29 00:10:00,
2013-01-29 00:15:00,49.4,47.8,29.64,East,90,0.0,5.0,94,0.00,,,0.00,WeatherCatV1.02B3,2013-01-29 00:15:00,
2013-01-29 00:20:00,49.4,47.8,29.64,East,90,0.0,5.0,94,0.00,,,0.00,WeatherCatV1.02B3,2013-01-29 00:20:00,
2013-01-29 00:25:00,49.4,47.8,29.64,East,90,0.0,5.0,94,0.00,,,0.00,WeatherCatV1.02B3,2013-01-29 00:25:00,
2013-01-29 00:30:00,49.5,47.6,29.64,East,90,0.0,3.0,93,0.00,,,0.00,WeatherCatV1.02B3,2013-01-29 00:30:00,
2013-01-29 00:35:00,49.5,47.6,29.64,East,90,0.0,3.0,93,0.00,,,0.00,WeatherCatV1.02B3,2013-01-29 00:35:00,
2013-01-29 00:40:00,49.5,47.6,29.64,East,90,0.0,3.0,93,0.00,,,0.00,WeatherCatV1.02B3,2013-01-29 00:40:00,
2013-01-29 00:45:00,49.5,47.6,29.64,East,90,0.0,3.0,93,0.00,,,0.00,WeatherCatV1.02B3,2013-01-29 00:45:00,
2013-01-29 00:50:00,49.5,47.6,29.64,East,90,0.0,3.0,93,0.00,,,0.00,WeatherCatV1.02B3,2013-01-29 00:50:00,
2013-01-29 00:55:00,49.5,47.6,29.64,East,90,0.0,3.0,93,0.00,,,0.00,WeatherCatV1.02B3,2013-01-29 00:55:00,
2013-01-29 01:00:00,49.5,47.0,29.65,NE,45,0.0,6.0,91,0.00,,,0.00,WeatherCatV1.02B3,2013-01-29 01:00:00,
2013-01-29 01:05:00,49.5,47.0,29.65,NE,45,0.0,6.0,91,0.00,,,0.00,WeatherCatV1.02B3,2013-01-29 01:05:00,
2013-01-29 01:10:00,49.5,47.0,29.65,NE,45,0.0,6.0,91,0.00,,,0.00,WeatherCatV1.02B3,2013-01-29 01:10:00,
2013-01-29 01:15:00,49.5,47.0,29.65,NE,45,0.0,6.0,91,0.00,,,0.00,WeatherCatV1.02B3,2013-01-29 01:15:00,
2013-01-29 01:20:00,49.5,47.0,29.65,NE,45,0.0,6.0,91,0.00,,,0.00,WeatherCatV1.02B3,2013-01-29 01:20:00,
2013-01-29 01:25:00,49.5,47.0,29.65,NE,45,0.0,6.0,91,0.00,,,0.00,WeatherCatV1.02B3,2013-01-29 01:25:00,
2013-01-29 01:30:00,49.5,47.0,29.65,NE,45,0.0,6.0,91,0.00,,,0.00,WeatherCatV1.02B3,2013-01-29 01:30:00,
2013-01-29 01:35:00,49.7,47.2,29.66,NE,45,1.0,4.0,91,0.00,,,0.00,WeatherCatV1.02B3,2013-01-29 01:35:00,
2013-01-29 01:40:00,49.7,47.2,29.66,NE,45,1.0,4.0,91,0.00,,,0.00,WeatherCatV1.02B3,2013-01-29 01:40:00,
2013-01-29 01:45:00,49.7,47.2,29.66,NE,45,1.0,4.0,91,0.00,,,0.00,WeatherCatV1.02B3,2013-01-29 01:45:00,
2013-01-29 01:50:00,49.7,47.2,29.66,NE,45,1.0,4.0,91,0.00,,,0.00,WeatherCatV1.02B3,2013-01-29 01:50:00,
2013-01-29 01:55:00,49.7,47.2,29.66,NE,45,1.0,4.0,91,0.00,,,0.00,WeatherCatV1.02B3,2013-01-29 01:55:00,
2013-01-29 02:00:00,49.7,47.2,29.66,NE,45,1.0,4.0,91,0.00,,,0.00,WeatherCatV1.02B3,2013-01-29 02:00:00,
2013-01-29 02:05:00,49.9,47.7,29.66,NE,45,0.0,4.0,92,0.00,,,0.00,WeatherCatV1.02B3,2013-01-29 02:05:00,
2013-01-29 02:10:00,49.9,47.7,29.66,NE,45,0.0,4.0,92,0.00,,,0.00,WeatherCatV1.02B3,2013-01-29 02:10:00,
2013-01-29 02:15:00,49.9,47.7,29.66,NE,45,0.0,4.0,92,0.00,,,0.00,WeatherCatV1.02B3,2013-01-29 02:15:00,
2013-01-29 02:20:00,49.9,47.7,29.66,NE,45,0.0,4.0,92,0.00,,,0.00,WeatherCatV1.02B3,2013-01-29 02:20:00,
2013-01-29 02:25:00,49.9,47.7,29.66,NE,45,0.0,4.0,92,0.00,,,0.00,WeatherCatV1.02B3,2013-01-29 02:25:00,
2013-01-29 02:30:00,49.9,47.7,29.66,ENE,68,0.0,3.0,92,0.00,,,0.00,WeatherCatV1.02B3,2013-01-29 02:30:00,
2013-01-29 02:35:00,49.9,47.7,29.66,ENE,68,0.0,3.0,92,0.00,,,0.00,WeatherCatV1.02B3,2013-01-29 02:35:00,
2013-01-29 02:40:00,49.9,47.7,29.66,ENE,68,0.0,3.0,92,0.00,,,0.00,WeatherCatV1.02B3,2013-01-29 02:40:00,
2013-01-29 02:45:00,49.9,47.7,29.66,ENE,68,0.0,3.0,92,0.00,,,0.00,WeatherCatV1.02B3,2013-01-29 02:45:00,
2013-01-29 02:50:00,49.9,47.7,29.66,ENE,68,0.0,3.0,92,0.00,,,0.00,WeatherCatV1.02B3,2013-01-29 02:50:00,
2013-01-29 02:55:00,49.9,47.7,29.66,ENE,68,0.0,3.0,92,0.00,,,0.00,WeatherCatV1.02B3,2013-01-29 02:55:00,
2013-01-29 03:00:00,49.9,47.7,29.66,ENE,68,0.0,3.0,92,0.00,,,0.00,WeatherCatV1.02B3,2013-01-29 03:00:00,
2013-01-29 03:05:00,49.7,47.8,29.66,East,90,0.0,2.0,93,0.00,,,0.00,WeatherCatV1.02B3,2013-01-29 03:05:00,
2013-01-29 03:10:00,49.7,47.8,29.66,East,90,0.0,2.0,93,0.00,,,0.00,WeatherCatV1.02B3,2013-01-29 03:10:00,
2013-01-29 03:15:00,49.7,47.8,29.66,East,90,0.0,2.0,93,0.00,,,0.00,WeatherCatV1.02B3,2013-01-29 03:15:00,
2013-01-29 03:20:00,49.7,47.8,29.66,East,90,0.0,2.0,93,0.00,,,0.00,WeatherCatV1.02B3,2013-01-29 03:20:00,
2013-01-29 03:25:00,49.7,47.8,29.66,East,90,0.0,2.0,93,0.00,,,0.00,WeatherCatV1.02B3,2013-01-29 03:25:00,
2013-01-29 03:30:00,49.7,47.8,29.66,East,90,0.0,2.0,93,0.00,,,0.00,WeatherCatV1.02B3,2013-01-29 03:30:00,
2013-01-29 03:35:00,49.4,47.8,29.66,NNE,22,0.0,4.0,94,0.00,,,0.00,WeatherCatV1.02B3,2013-01-29 03:35:00,
2013-01-29 03:40:00,49.4,47.8,29.66,NNE,22,0.0,4.0,94,0.00,,,0.00,WeatherCatV1.02B3,2013-01-29 03:40:00,
2013-01-29 03:45:00,49.4,47.8,29.66,NNE,22,0.0,4.0,94,0.00,,,0.00,WeatherCatV1.02B3,2013-01-29 03:45:00,
2013-01-29 03:50:00,49.4,47.8,29.66,NNE,22,0.0,4.0,94,0.00,,,0.00,WeatherCatV1.02B3,2013-01-29 03:50:00,
2013-01-29 03:55:00,49.4,47.8,29.66,NNE,22,0.0,4.0,94,0.00,,,0.00,WeatherCatV1.02B3,2013-01-29 03:55:00,
2013-01-29 04:00:00,48.9,47.8,29.66,NE,45,0.0,3.0,96,0.00,,,0.00,WeatherCatV1.02B3,2013-01-29 04:00:00,
2013-01-29 04:05:00,48.9,47.8,29.66,NE,45,0.0,3.0,96,0.00,,,0.00,WeatherCatV1.02B3,2013-01-29 04:05:00,
2013-01-29 04:10:00,48.9,47.8,29.66,NE,45,0.0,3.0,96,0.00,,,0.00,WeatherCatV1.02B3,2013-01-29 04:10:00,
2013-01-29 04:15:00,48.9,47.8,29.66,NE,45,0.0,3.0,96,0.00,,,0.00,WeatherCatV1.02B3,2013-01-29 04:15:00,
2013-01-29 04:20:00,48.9,47.8,29.66,NE,45,0.0,3.0,96,0.00,,,0.00,WeatherCatV1.02B3,2013-01-29 04:20:00,
2013-01-29 04:25:00,48.9,47.8,29.66,NE,45,0.0,3.0,96,0.00,,,0.00,WeatherCatV1.02B3,2013-01-29 04:25:00,
2013-01-29 04:30:00,48.9,47.8,29.66,NE,45,0.0,3.0,96,0.00,,,0.00,WeatherCatV1.02B3,2013-01-29 04:30:00,
2013-01-29 04:35:00,48.9,48.1,29.65,ENE,68,0.0,3.0,97,0.00,,,0.00,WeatherCatV1.02B3,2013-01-29 04:35:00,
2013-01-29 04:40:00,48.9,48.1,29.65,ENE,68,0.0,3.0,97,0.00,,,0.00,WeatherCatV1.02B3,2013-01-29 04:40:00,
2013-01-29 04:45:00,48.9,48.1,29.65,ENE,68,0.0,3.0,97,0.00,,,0.00,WeatherCatV1.02B3,2013-01-29 04:45:00,
2013-01-29 04:50:00,48.9,48.1,29.65,ENE,68,0.0,3.0,97,0.00,,,0.00,WeatherCatV1.02B3,2013-01-29 04:50:00,
2013-01-29 04:55:00,48.9,48.1,29.65,ENE,68,0.0,3.0,97,0.00,,,0.00,WeatherCatV1.02B3,2013-01-29 04:55:00,
2013-01-29 05:00:00,48.9,48.1,29.65,ENE,68,0.0,3.0,97,0.00,,,0.00,WeatherCatV1.02B3,2013-01-29 05:00:00,
2013-01-29 05:05:00,48.4,47.6,29.64,NE,45,0.0,3.0,97,0.00,,,0.00,WeatherCatV1.02B3,2013-01-29 05:05:00,
2013-01-29 05:10:00,48.4,47.6,29.64,NE,45,0.0,3.0,97,0.00,,,0.00,WeatherCatV1.02B3,2013-01-29 05:10:00,
2013-01-29 05:15:00,48.4,47.6,29.64,NE,45,0.0,3.0,97,0.00,,,0.00,WeatherCatV1.02B3,2013-01-29 05:15:00,
2013-01-29 05:20:00,48.4,47.6,29.64,NE,45,0.0,3.0,97,0.00,,,0.00,WeatherCatV1.02B3,2013-01-29 05:20:00,
2013-01-29 05:25:00,48.4,47.6,29.64,NE,45,0.0,3.0,97,0.00,,,0.00,WeatherCatV1.02B3,2013-01-29 05:25:00,
2013-01-29 05:30:00,48.4,47.6,29.64,NE,45,0.0,3.0,97,0.00,,,0.00,WeatherCatV1.02B3,2013-01-29 05:30:00,
2013-01-29 05:35:00,48.0,47.5,29.64,East,90,0.0,2.0,98,0.00,,,0.00,WeatherCatV1.02B3,2013-01-29 05:35:00,
2013-01-29 05:40:00,48.0,47.5,29.64,East,90,0.0,2.0,98,0.00,,,0.00,WeatherCatV1.02B3,2013-01-29 05:40:00,
2013-01-29 05:45:00,48.0,47.5,29.64,East,90,0.0,2.0,98,0.00,,,0.00,WeatherCatV1.02B3,2013-01-29 05:45:00,
2013-01-29 05:50:00,48.0,47.5,29.64,East,90,0.0,2.0,98,0.00,,,0.00,WeatherCatV1.02B3,2013-01-29 05:50:00,
2013-01-29 05:55:00,48.0,47.5,29.64,East,90,0.0,2.0,98,0.00,,,0.00,WeatherCatV1.02B3,2013-01-29 05:55:00,
2013-01-29 06:00:00,47.8,47.3,29.63,ENE,68,0.0,2.0,98,0.00,,,0.00,WeatherCatV1.02B3,2013-01-29 06:00:00,
2013-01-29 06:05:00,47.8,47.3,29.63,ENE,68,0.0,2.0,98,0.00,,,0.00,WeatherCatV1.02B3,2013-01-29 06:05:00,
2013-01-29 06:10:00,47.8,47.3,29.63,ENE,68,0.0,2.0,98,0.00,,,0.00,WeatherCatV1.02B3,2013-01-29 06:10:00,
2013-01-29 06:15:00,47.8,47.3,29.63,ENE,68,0.0,2.0,98,0.00,,,0.00,WeatherCatV1.02B3,2013-01-29 06:15:00,
2013-01-29 06:20:00,47.8,47.3,29.63,ENE,68,0.0,2.0,98,0.00,,,0.00,WeatherCatV1.02B3,2013-01-29 06:20:00,
2013-01-29 06:25:00,47.8,47.3,29.63,ENE,68,0.0,2.0,98,0.00,,,0.00,WeatherCatV1.02B3,2013-01-29 06:25:00,
2013-01-29 06:30:00,47.8,47.3,29.63,ENE,68,0.0,2.0,98,0.00,,,0.00,WeatherCatV1.02B3,2013-01-29 06:30:00,
2013-01-29 06:35:00,48.0,47.5,29.62,East,90,0.0,2.0,98,0.00,,,0.00,WeatherCatV1.02B3,2013-01-29 06:35:00,
2013-01-29 06:40:00,48.0,47.5,29.62,East,90,0.0,2.0,98,0.00,,,0.00,WeatherCatV1.02B3,2013-01-29 06:40:00,
2013-01-29 06:45:00,48.0,47.5,29.62,East,90,0.0,2.0,98,0.00,,,0.00,WeatherCatV1.02B3,2013-01-29 06:45:00,
2013-01-29 06:50:00,48.0,47.5,29.62,East,90,0.0,2.0,98,0.00,,,0.00,WeatherCatV1.02B3,2013-01-29 06:50:00,
2013-01-29 06:55:00,48.0,47.5,29.62,East,90,0.0,2.0,98,0.00,,,0.00,WeatherCatV1.02B3,2013-01-29 06:55:00,
2013-01-29 07:00:00,49.2,48.9,29.61,ENE,68,0.0,2.0,99,0.00,,,0.00,WeatherCatV1.02B3,2013-01-29 07:00:00,
2013-01-29 07:05:00,49.2,48.9,29.61,ENE,68,0.0,2.0,99,0.00,,,0.00,WeatherCatV1.02B3,2013-01-29 07:05:00,
2013-01-29 07:10:00,49.2,48.9,29.61,ENE,68,0.0,2.0,99,0.00,,,0.00,WeatherCatV1.02B3,2013-01-29 07:10:00,
2013-01-29 07:15:00,49.2,48.9,29.61,ENE,68,0.0,2.0,99,0.00,,,0.00,WeatherCatV1.02B3,2013-01-29 07:15:00,
2013-01-29 07:20:00,49.2,48.9,29.61,ENE,68,0.0,2.0,99,0.00,,,0.00,WeatherCatV1.02B3,2013-01-29 07:20:00,
2013-01-29 07:30:00,50.1,49.8,29.61,NE,47,0.0,1.0,99,0.00,,,0.00,WeatherCatV1.02B3,2013-01-29 07:30:00,
2013-01-29 07:35:00,50.4,50.1,29.61,NE,51,1.0,1.0,99,0.00,,,0.02,WeatherCatV1.02B3,2013-01-29 07:35:00,
2013-01-29 07:40:00,50.6,50.3,29.61,NNW,331,0.0,2.0,99,0.00,,,0.02,WeatherCatV1.02B3,2013-01-29 07:40:00,
2013-01-29 07:45:00,50.8,50.5,29.61,SW,232,0.0,1.0,99,0.00,,,0.02,WeatherCatV1.02B3,2013-01-29 07:45:00,
2013-01-29 07:50:00,51.0,50.7,29.61,ENE,76,2.0,3.0,99,0.00,,,0.02,WeatherCatV1.02B3,2013-01-29 07:50:00,
2013-01-29 07:55:00,51.1,50.6,29.61,NNW,338,0.0,2.0,98,0.00,,,0.02,WeatherCatV1.02B3,2013-01-29 07:55:00,
2013-01-29 08:00:00,51.2,50.7,29.61,North,350,0.0,3.0,98,0.00,,,0.02,WeatherCatV1.02B3,2013-01-29 08:00:00,
2013-01-29 08:05:00,51.4,50.9,29.62,West,276,1.0,2.0,98,0.00,,,0.02,WeatherCatV1.02B3,2013-01-29 08:05:00,
2013-01-29 08:10:00,51.5,51.0,29.62,NNE,29,0.0,3.0,98,0.00,,,0.02,WeatherCatV1.02B3,2013-01-29 08:10:00,
2013-01-29 08:15:00,51.6,51.1,29.62,ESE,110,0.0,1.0,98,0.00,,,0.02,WeatherCatV1.02B3,2013-01-29 08:15:00,
2013-01-29 08:20:00,51.6,51.1,29.63,ENE,58,0.0,1.0,98,0.00,,,0.02,WeatherCatV1.02B3,2013-01-29 08:20:00,
2013-01-29 08:25:00,51.7,51.2,29.63,ESE,108,2.0,2.0,98,0.00,,,0.02,WeatherCatV1.02B3,2013-01-29 08:25:00,
2013-01-29 08:30:00,51.9,51.4,29.63,East,86,0.0,1.0,98,0.00,,,0.02,WeatherCatV1.02B3,2013-01-29 08:30:00,
2013-01-29 08:35:00,52.0,51.5,29.63,NE,54,2.0,2.0,98,0.00,,,0.02,WeatherCatV1.02B3,2013-01-29 08:35:00,
2013-01-29 08:40:00,52.0,51.2,29.63,NE,54,0.0,0.0,97,0.00,,,0.02,WeatherCatV1.02B3,2013-01-29 08:40:00,
2013-01-29 08:45:00,52.1,51.3,29.63,ESE,103,0.0,1.0,97,0.00,,,0.02,WeatherCatV1.02B3,2013-01-29 08:45:00,
2013-01-29 08:50:00,52.1,51.3,29.62,East,80,0.0,1.0,97,0.00,,,0.02,WeatherCatV1.02B3,2013-01-29 08:50:00,
2013-01-29 08:55:00,52.1,51.3,29.63,ENE,59,1.0,2.0,97,0.00,,,0.02,WeatherCatV1.02B3,2013-01-29 08:55:00,
2013-01-29 09:00:00,52.1,51.3,29.63,North,1,0.0,1.0,97,0.00,,,0.02,WeatherCatV1.02B3,2013-01-29 09:00:00,
2013-01-29 09:05:00,52.2,51.4,29.63,ENE,59,0.0,2.0,97,0.00,,,0.02,WeatherCatV1.02B3,2013-01-29 09:05:00,
2013-01-29 09:10:00,52.2,51.7,29.63,ENE,59,0.0,1.0,98,0.00,,,0.02,WeatherCatV1.02B3,2013-01-29 09:10:00,
2013-01-29 09:15:00,52.4,51.6,29.63,NE,46,0.0,2.0,97,0.00,,,0.02,WeatherCatV1.02B3,2013-01-29 09:15:00,
2013-01-29 09:20:00,52.5,51.7,29.63,ENE,63,0.0,2.0,97,0.00,,,0.02,WeatherCatV1.02B3,2013-01-29 09:20:00,
2013-01-29 09:25:00,52.6,51.8,29.63,East,81,0.0,1.0,97,0.00,,,0.02,WeatherCatV1.02B3,2013-01-29 09:25:00,
2013-01-29 09:30:00,52.8,52.0,29.63,NE,41,0.0,0.0,97,0.00,,,0.02,WeatherCatV1.02B3,2013-01-29 09:30:00,
2013-01-29 09:35:00,52.9,52.1,29.64,NNW,346,0.0,1.0,97,0.00,,,0.02,WeatherCatV1.02B3,2013-01-29 09:35:00,
2013-01-29 09:40:00,53.0,52.2,29.63,North,6,1.0,2.0,97,0.00,,,0.02,WeatherCatV1.02B3,2013-01-29 09:40:00,
2013-01-29 09:45:00,53.1,52.3,29.63,ESE,103,0.0,1.0,97,0.00,,,0.02,WeatherCatV1.02B3,2013-01-29 09:45:00,
2013-01-29 09:50:00,53.2,52.4,29.63,NNW,335,1.0,3.0,97,0.00,,,0.02,WeatherCatV1.02B3,2013-01-29 09:50:00,
2013-01-29 09:55:00,53.2,52.4,29.63,NE,46,0.0,1.0,97,0.00,,,0.02,WeatherCatV1.02B3,2013-01-29 09:55:00,
2013-01-29 10:00:00,53.3,52.2,29.63,East,91,0.0,2.0,96,0.00,,,0.02,WeatherCatV1.02B3,2013-01-29 10:00:00,
2013-01-29 10:05:00,53.4,52.6,29.63,NE,41,0.0,2.0,97,0.00,,,0.02,WeatherCatV1.02B3,2013-01-29 10:05:00,
2013-01-29 10:10:00,53.4,52.3,29.63,ENE,59,1.0,2.0,96,0.00,,,0.02,WeatherCatV1.02B3,2013-01-29 10:10:00,
2013-01-29 10:15:00,53.5,52.4,29.63,ENE,70,1.0,2.0,96,0.00,,,0.02,WeatherCatV1.02B3,2013-01-29 10:15:00,
2013-01-29 10:20:00,53.5,52.4,29.63,ESE,118,3.0,3.0,96,0.00,,,0.02,WeatherCatV1.02B3,2013-01-29 10:20:00,
2013-01-29 10:25:00,53.6,52.5,29.63,NNE,13,0.0,3.0,96,0.00,,,0.02,WeatherCatV1.02B3,2013-01-29 10:25:00,
2013-01-29 10:30:00,53.6,52.5,29.63,NE,54,1.0,3.0,96,0.00,,,0.02,WeatherCatV1.02B3,2013-01-29 10:30:00,
2013-01-29 10:35:00,53.7,52.6,29.63,WNW,288,0.0,2.0,96,0.00,,,0.02,WeatherCatV1.02B3,2013-01-29 10:35:00,
2013-01-29 10:40:00,53.8,52.7,29.63,ENE,70,0.0,1.0,96,0.00,,,0.02,WeatherCatV1.02B3,2013-01-29 10:40:00,
2013-01-29 10:45:00,53.9,52.8,29.64,East,81,1.0,2.0,96,0.00,,,0.02,WeatherCatV1.02B3,2013-01-29 10:45:00,
2013-01-29 10:50:00,54.0,52.6,29.64,NNE,26,0.0,2.0,95,0.00,,,0.02,WeatherCatV1.02B3,2013-01-29 10:50:00,
2013-01-29 10:55:00,54.1,52.7,29.64,ENE,72,1.0,3.0,95,0.00,,,0.02,WeatherCatV1.02B3,2013-01-29 10:55:00,
2013-01-29 11:00:00,54.2,53.1,29.64,NNW,344,1.0,1.0,96,0.00,,,0.02,WeatherCatV1.02B3,2013-01-29 11:00:00,
2013-01-29 11:05:00,54.3,52.9,29.64,North,354,1.0,3.0,95,0.00,,,0.02,WeatherCatV1.02B3,2013-01-29 11:05:00,
2013-01-29 11:10:00,54.3,52.9,29.64,NNE,32,0.0,1.0,95,0.00,,,0.02,WeatherCatV1.02B3,2013-01-29 11:10:00,
2013-01-29 11:15:00,54.4,53.0,29.64,ENE,70,1.0,3.0,95,0.00,,,0.02,WeatherCatV1.02B3,2013-01-29 11:15:00,
2013-01-29 11:20:00,54.4,53.0,29.64,NNW,334,1.0,7.0,95,0.00,,,0.02,WeatherCatV1.02B3,2013-01-29 11:20:00,
2013-01-29 11:25:00,54.4,53.0,29.64,NE,46,1.0,2.0,95,0.00,,,0.02,WeatherCatV1.02B3,2013-01-29 11:25:00,
2013-01-29 11:30:00,54.4,53.0,29.64,NE,36,0.0,3.0,95,0.00,,,0.02,WeatherCatV1.02B3,2013-01-29 11:30:00,
2013-01-29 11:36:00,54.4,53.0,29.64,NNE,13,2.0,3.0,95,0.00,,,0.02,WeatherCatV1.02B3,2013-01-29 11:36:00,
2013-01-29 11:41:00,54.4,53.0,29.64,East,89,1.0,2.0,95,0.00,,,0.02,WeatherCatV1.02B3,2013-01-29 11:41:00,
2013-01-29 11:46:00,54.4,53.0,29.64,North,11,1.0,3.0,95,0.00,,,0.02,WeatherCatV1.02B3,2013-01-29 11:46:00,
2013-01-29 11:51:00,54.3,52.9,29.64,NNE,32,1.0,2.0,95,0.00,,,0.02,WeatherCatV1.02B3,2013-01-29 11:51:00,
2013-01-29 11:56:00,54.3,52.9,29.64,NW,319,0.0,3.0,95,0.00,,,0.02,WeatherCatV1.02B3,2013-01-29 11:56:00,
2013-01-29 12:01:00,54.3,52.9,29.64,East,80,0.0,4.0,95,0.00,,,0.02,WeatherCatV1.02B3,2013-01-29 12:01:00,
2013-01-29 12:06:00,54.3,52.9,29.64,NE,54,0.0,1.0,95,0.00,,,0.02,WeatherCatV1.02B3,2013-01-29 12:06:00,
2013-01-29 12:11:00,54.3,52.9,29.64,ENE,57,1.0,2.0,95,0.00,,,0.02,WeatherCatV1.02B3,2013-01-29 12:11:00,
2013-01-29 12:16:00,54.3,52.9,29.64,ENE,75,1.0,3.0,95,0.00,,,0.02,WeatherCatV1.02B3,2013-01-29 12:16:00,
2013-01-29 12:21:00,54.4,53.0,29.64,North,11,1.0,3.0,95,0.00,,,0.02,WeatherCatV1.02B3,2013-01-29 12:21:00,
2013-01-29 12:26:00,54.4,53.0,29.64,ESE,106,0.0,4.0,95,0.00,,,0.02,WeatherCatV1.02B3,2013-01-29 12:26:00,
2013-01-29 12:31:00,54.5,53.1,29.64,ENE,77,0.0,1.0,95,0.00,,,0.02,WeatherCatV1.02B3,2013-01-29 12:31:00,
2013-01-29 12:36:00,54.5,53.1,29.64,NE,46,0.0,1.0,95,0.00,,,0.02,WeatherCatV1.02B3,2013-01-29 12:36:00,
2013-01-29 12:41:00,54.6,53.2,29.64,East,87,1.0,3.0,95,0.00,,,0.02,WeatherCatV1.02B3,2013-01-29 12:41:00,
2013-01-29 12:46:00,54.6,53.2,29.63,NE,46,0.0,2.0,95,0.00,,,0.02,WeatherCatV1.02B3,2013-01-29 12:46:00,
2013-01-29 12:51:00,54.5,53.1,29.64,NNW,341,0.0,1.0,95,0.00,,,0.02,WeatherCatV1.02B3,2013-01-29 12:51:00,
2013-01-29 12:56:00,54.5,53.1,29.64,NE,47,1.0,1.0,95,0.00,,,0.02,WeatherCatV1.02B3,2013-01-29 12:56:00,
2013-01-29 13:01:00,54.6,53.2,29.63,NE,56,1.0,2.0,95,0.00,,,0.02,WeatherCatV1.02B3,2013-01-29 13:01:00,
2013-01-29 13:06:00,54.7,53.3,29.64,NE,34,2.0,2.0,95,0.00,,,0.02,WeatherCatV1.02B3,2013-01-29 13:06:00,
2013-01-29 13:11:00,54.8,53.4,29.63,NNE,32,0.0,1.0,95,0.00,,,0.02,WeatherCatV1.02B3,2013-01-29 13:11:00,
2013-01-29 13:16:00,54.9,53.5,29.62,NNE,23,0.0,1.0,95,0.00,,,0.02,WeatherCatV1.02B3,2013-01-29 13:16:00,
2013-01-29 13:21:00,55.0,53.6,29.63,East,97,3.0,3.0,95,0.00,,,0.02,WeatherCatV1.02B3,2013-01-29 13:21:00,
2013-01-29 13:26:00,55.2,53.5,29.62,ENE,59,0.0,4.0,94,0.00,,,0.02,WeatherCatV1.02B3,2013-01-29 13:26:00,
2013-01-29 13:31:00,55.3,53.6,29.62,NNE,26,0.0,2.0,94,0.00,,,0.02,WeatherCatV1.02B3,2013-01-29 13:31:00,
2013-01-29 13:36:00,55.3,53.6,29.62,ENE,65,1.0,3.0,94,0.00,,,0.02,WeatherCatV1.02B3,2013-01-29 13:36:00,
2013-01-29 13:41:00,55.4,53.7,29.63,NNE,30,1.0,3.0,94,0.00,,,0.02,WeatherCatV1.02B3,2013-01-29 13:41:00,
2013-01-29 13:46:00,55.4,53.7,29.63,NE,51,0.0,1.0,94,0.00,,,0.02,WeatherCatV1.02B3,2013-01-29 13:46:00,
2013-01-29 13:51:00,55.3,53.6,29.63,NE,39,0.0,3.0,94,0.00,,,0.02,WeatherCatV1.02B3,2013-01-29 13:51:00,
2013-01-29 13:56:00,55.3,53.6,29.63,East,91,1.0,4.0,94,0.00,,,0.02,WeatherCatV1.02B3,2013-01-29 13:56:00,
2013-01-29 14:00:00,55.3,53.6,29.62,ENE,70,1.0,3.0,94,0.00,,,0.02,WeatherCatV1.02B3,2013-01-29 14:00:00,
2013-01-29 14:05:00,55.4,53.4,29.62,North,11,0.0,2.0,93,0.00,,,0.02,WeatherCatV1.02B3,2013-01-29 14:05:00,
2013-01-29 14:10:00,55.4,53.4,29.62,SE,133,0.0,2.0,93,0.00,,,0.02,WeatherCatV1.02B3,2013-01-29 14:10:00,
2013-01-29 14:15:00,55.4,53.4,29.63,NNE,29,0.0,1.0,93,0.00,,,0.02,WeatherCatV1.02B3,2013-01-29 14:15:00,
2013-01-29 14:20:00,55.4,53.4,29.62,North,11,0.0,3.0,93,0.00,,,0.02,WeatherCatV1.02B3,2013-01-29 14:20:00,
2013-01-29 14:25:00,55.3,53.3,29.61,NE,41,2.0,3.0,93,0.00,,,0.02,WeatherCatV1.02B3,2013-01-29 14:25:00,
2013-01-29 14:30:00,55.4,53.4,29.62,NE,39,0.0,3.0,93,0.00,,,0.02,WeatherCatV1.02B3,2013-01-29 14:30:00,
2013-01-29 14:35:00,55.4,53.4,29.61,NE,44,1.0,3.0,93,0.00,,,0.02,WeatherCatV1.02B3,2013-01-29 14:35:00,
2013-01-29 14:40:00,55.4,53.4,29.62,NNW,330,1.0,4.0,93,0.00,,,0.02,WeatherCatV1.02B3,2013-01-29 14:40:00,
2013-01-29 14:45:00,55.4,53.4,29.62,NE,44,0.0,3.0,93,0.00,,,0.02,WeatherCatV1.02B3,2013-01-29 14:45:00,
2013-01-29 14:50:00,55.4,53.4,29.62,ESE,103,0.0,1.0,93,0.00,,,0.02,WeatherCatV1.02B3,2013-01-29 14:50:00,
2013-01-29 14:55:00,55.4,53.4,29.61,NNW,331,1.0,5.0,93,0.00,,,0.02,WeatherCatV1.02B3,2013-01-29 14:55:00,
2013-01-29 15:00:00,55.4,53.4,29.61,NW,322,1.0,3.0,93,0.00,,,0.02,WeatherCatV1.02B3,2013-01-29 15:00:00,
2013-01-29 15:05:00,55.4,53.4,29.62,WNW,288,1.0,2.0,93,0.00,,,0.02,WeatherCatV1.02B3,2013-01-29 15:05:00,
2013-01-29 15:10:00,55.5,53.5,29.62,ESE,106,1.0,3.0,93,0.00,,,0.02,WeatherCatV1.02B3,2013-01-29 15:10:00,
2013-01-29 15:15:00,55.5,53.5,29.61,North,350,1.0,4.0,93,0.00,,,0.02,WeatherCatV1.02B3,2013-01-29 15:15:00,
2013-01-29 15:20:00,55.5,53.5,29.62,NW,326,0.0,3.0,93,0.00,,,0.02,WeatherCatV1.02B3,2013-01-29 15:20:00,
2013-01-29 15:25:00,55.4,53.4,29.62,ESE,108,0.0,5.0,93,0.00,,,0.02,WeatherCatV1.02B3,2013-01-29 15:25:00,
2013-01-29 15:30:00,55.5,53.5,29.61,NE,39,2.0,3.0,93,0.00,,,0.02,WeatherCatV1.02B3,2013-01-29 15:30:00,
2013-01-29 15:35:00,55.4,53.4,29.61,NNE,13,2.0,4.0,93,0.00,,,0.02,WeatherCatV1.02B3,2013-01-29 15:35:00,
2013-01-29 15:40:00,55.4,53.4,29.61,NNE,12,1.0,2.0,93,0.00,,,0.02,WeatherCatV1.02B3,2013-01-29 15:40:00,
2013-01-29 15:45:00,55.2,53.2,29.61,ESE,119,1.0,4.0,93,0.00,,,0.03,WeatherCatV1.02B3,2013-01-29 15:45:00,
2013-01-29 15:50:00,54.9,53.2,29.61,ESE,113,1.0,2.0,94,0.00,,,0.03,WeatherCatV1.02B3,2013-01-29 15:50:00,
2013-01-29 15:55:00,54.7,53.0,29.61,North,0,0.0,3.0,94,0.00,,,0.03,WeatherCatV1.02B3,2013-01-29 15:55:00,
2013-01-29 16:00:00,54.5,53.1,29.61,SSW,193,0.0,2.0,95,0.00,,,0.03,WeatherCatV1.02B3,2013-01-29 16:00:00,
2013-01-29 16:05:00,54.4,53.0,29.60,SE,128,1.0,4.0,95,0.00,,,0.03,WeatherCatV1.02B3,2013-01-29 16:05:00,
2013-01-29 16:10:00,54.2,52.8,29.60,NNE,18,1.0,1.0,95,0.00,,,0.03,WeatherCatV1.02B3,2013-01-29 16:10:00,
2013-01-29 16:15:00,54.2,52.8,29.61,East,79,1.0,2.0,95,0.00,,,0.03,WeatherCatV1.02B3,2013-01-29 16:15:00,
2013-01-29 16:20:00,54.2,52.8,29.61,ENE,65,2.0,2.0,95,0.00,,,0.03,WeatherCatV1.02B3,2013-01-29 16:20:00,
2013-01-29 16:25:00,54.2,52.8,29.61,East,98,1.0,5.0,95,0.00,,,0.03,WeatherCatV1.02B3,2013-01-29 16:25:00,
2013-01-29 16:30:00,54.3,52.6,29.61,North,351,0.0,2.0,94,0.00,,,0.03,WeatherCatV1.02B3,2013-01-29 16:30:00,
2013-01-29 16:35:00,54.3,52.6,29.61,NE,42,2.0,5.0,94,0.00,,,0.03,WeatherCatV1.02B3,2013-01-29 16:35:00,
2013-01-29 16:40:00,54.4,52.7,29.61,ESE,118,0.0,2.0,94,0.00,,,0.03,WeatherCatV1.02B3,2013-01-29 16:40:00,
2013-01-29 16:45:00,54.4,52.7,29.61,NE,43,1.0,3.0,94,0.00,,,0.03,WeatherCatV1.02B3,2013-01-29 16:45:00,
2013-01-29 16:50:00,54.3,52.6,29.61,East,93,2.0,3.0,94,0.00,,,0.03,WeatherCatV1.02B3,2013-01-29 16:50:00,
2013-01-29 16:55:00,54.3,52.6,29.62,ENE,63,1.0,3.0,94,0.00,,,0.03,WeatherCatV1.02B3,2013-01-29 16:55:00,
2013-01-29 17:00:00,54.3,52.6,29.62,ESE,102,2.0,2.0,94,0.00,,,0.03,WeatherCatV1.02B3,2013-01-29 17:00:00,
2013-01-29 17:05:00,54.3,52.6,29.62,NE,49,1.0,2.0,94,0.00,,,0.03,WeatherCatV1.02B3,2013-01-29 17:05:00,
2013-01-29 17:10:00,54.2,52.8,29.62,ESE,110,0.0,2.0,95,0.00,,,0.03,WeatherCatV1.02B3,2013-01-29 17:10:00,
2013-01-29 17:15:00,54.1,52.7,29.62,ENE,78,0.0,1.0,95,0.00,,,0.03,WeatherCatV1.02B3,2013-01-29 17:15:00,
2013-01-29 17:20:00,54.0,52.6,29.62,NE,42,0.0,5.0,95,0.00,,,0.03,WeatherCatV1.02B3,2013-01-29 17:20:00,
2013-01-29 17:25:00,54.0,52.6,29.61,NE,44,0.0,2.0,95,0.00,,,0.03,WeatherCatV1.02B3,2013-01-29 17:25:00,
2013-01-29 17:30:00,54.0,52.6,29.61,NE,44,0.0,1.0,95,0.00,,,0.03,WeatherCatV1.02B3,2013-01-29 17:30:00,
2013-01-29 17:35:00,53.9,52.8,29.62,NE,43,1.0,3.0,96,0.00,,,0.03,WeatherCatV1.02B3,2013-01-29 17:35:00,
2013-01-29 17:40:00,53.8,52.7,29.61,ENE,71,2.0,2.0,96,0.00,,,0.03,WeatherCatV1.02B3,2013-01-29 17:40:00,
2013-01-29 17:45:00,53.7,52.6,29.61,North,6,1.0,1.0,96,0.00,,,0.03,WeatherCatV1.02B3,2013-01-29 17:45:00,
2013-01-29 17:50:00,53.7,52.6,29.61,North,5,2.0,2.0,96,0.00,,,0.03,WeatherCatV1.02B3,2013-01-29 17:50:00,
2013-01-29 17:55:00,53.7,52.6,29.61,North,6,1.0,3.0,96,0.00,,,0.03,WeatherCatV1.02B3,2013-01-29 17:55:00,
2013-01-29 18:00:00,53.6,52.5,29.60,NE,46,2.0,2.0,96,0.00,,,0.03,WeatherCatV1.02B3,2013-01-29 18:00:00,
2013-01-29 18:05:00,53.6,52.5,29.61,SE,126,2.0,4.0,96,0.00,,,0.03,WeatherCatV1.02B3,2013-01-29 18:05:00,
2013-01-29 18:10:00,53.6,52.5,29.61,NNE,20,1.0,7.0,96,0.00,,,0.03,WeatherCatV1.02B3,2013-01-29 18:10:00,
2013-01-29 18:15:00,53.6,52.5,29.61,North,354,1.0,4.0,96,0.00,,,0.03,WeatherCatV1.02B3,2013-01-29 18:15:00,
2013-01-29 18:20:00,53.5,52.4,29.61,SE,125,1.0,1.0,96,0.00,,,0.03,WeatherCatV1.02B3,2013-01-29 18:20:00,
2013-01-29 18:25:00,53.5,52.4,29.61,SW,229,1.0,5.0,96,0.00,,,0.03,WeatherCatV1.02B3,2013-01-29 18:25:00,
2013-01-29 18:30:00,53.5,52.4,29.61,ENE,72,1.0,2.0,96,0.00,,,0.03,WeatherCatV1.02B3,2013-01-29 18:30:00,
2013-01-29 18:35:00,53.5,52.4,29.61,East,86,1.0,2.0,96,0.00,,,0.03,WeatherCatV1.02B3,2013-01-29 18:35:00,
2013-01-29 18:40:00,53.4,52.3,29.61,NNE,13,0.0,5.0,96,0.00,,,0.03,WeatherCatV1.02B3,2013-01-29 18:40:00,
2013-01-29 18:45:00,53.4,52.3,29.61,North,0,1.0,4.0,96,0.00,,,0.03,WeatherCatV1.02B3,2013-01-29 18:45:00,
2013-01-29 18:50:00,53.4,52.3,29.61,ESE,103,2.0,2.0,96,0.00,,,0.03,WeatherCatV1.02B3,2013-01-29 18:50:00,
2013-01-29 18:55:00,53.4,52.3,29.60,ENE,64,3.0,3.0,96,0.00,,,0.03,WeatherCatV1.02B3,2013-01-29 18:55:00,
2013-01-29 19:00:00,53.5,52.4,29.60,North,351,2.0,2.0,96,0.00,,,0.03,WeatherCatV1.02B3,2013-01-29 19:00:00,
2013-01-29 19:05:00,53.6,52.5,29.60,NNE,18,1.0,3.0,96,0.00,,,0.03,WeatherCatV1.02B3,2013-01-29 19:05:00,
2013-01-29 19:10:00,53.7,52.3,29.60,ENE,60,1.0,2.0,95,0.00,,,0.03,WeatherCatV1.02B3,2013-01-29 19:10:00,
2013-01-29 19:15:00,53.8,52.4,29.60,SSE,168,1.0,3.0,95,0.00,,,0.03,WeatherCatV1.02B3,2013-01-29 19:15:00,
2013-01-29 19:20:00,53.9,52.5,29.60,NNW,331,1.0,4.0,95,0.00,,,0.03,WeatherCatV1.02B3,2013-01-29 19:20:00,
2013-01-29 19:25:00,54.0,52.3,29.60,NE,56,0.0,1.0,94,0.00,,,0.03,WeatherCatV1.02B3,2013-01-29 19:25:00,
2013-01-29 19:53:00,54.0,52.6,29.59,North,11,2.0,3.0,95,0.00,,,0.03,WeatherCatV1.02B3,2013-01-29 19:53:00,
2013-01-29 19:56:00,54.0,52.6,29.60,NE,39,1.0,6.0,95,0.00,,,0.03,WeatherCatV1.02B3,2013-01-29 19:56:00,
2013-01-29 20:01:00,54.0,52.6,29.60,NE,34,2.0,3.0,95,0.00,,,0.03,WeatherCatV1.02B3,2013-01-29 20:01:00,
2013-01-29 20:06:00,54.0,52.6,29.60,WNW,298,3.0,4.0,95,0.00,,,0.03,WeatherCatV1.02B3,2013-01-29 20:06:00,
2013-01-29 20:11:00,53.9,52.5,29.60,North,8,1.0,3.0,95,0.00,,,0.03,WeatherCatV1.02B3,2013-01-29 20:11:00,
2013-01-29 20:16:00,53.9,52.5,29.59,ESE,103,1.0,3.0,95,0.00,,,0.03,WeatherCatV1.02B3,2013-01-29 20:16:00,
2013-01-29 20:21:00,53.9,52.5,29.59,NNE,22,0.0,8.0,95,0.00,,,0.03,WeatherCatV1.02B3,2013-01-29 20:21:00,
2013-01-29 20:26:00,53.8,52.4,29.59,West,278,3.0,4.0,95,0.00,,,0.03,WeatherCatV1.02B3,2013-01-29 20:26:00,
2013-01-29 20:31:00,53.9,52.5,29.59,East,84,3.0,3.0,95,0.00,,,0.03,WeatherCatV1.02B3,2013-01-29 20:31:00,
2013-01-29 20:36:00,53.9,52.2,29.59,NE,51,1.0,2.0,94,0.00,,,0.03,WeatherCatV1.02B3,2013-01-29 20:36:00,
2013-01-29 20:41:00,53.9,52.2,29.59,East,91,1.0,4.0,94,0.00,,,0.03,WeatherCatV1.02B3,2013-01-29 20:41:00,
2013-01-29 20:46:00,53.9,52.2,29.59,North,349,1.0,3.0,94,0.00,,,0.03,WeatherCatV1.02B3,2013-01-29 20:46:00,
2013-01-29 20:51:00,53.9,52.2,29.59,NE,40,0.0,4.0,94,0.00,,,0.03,WeatherCatV1.02B3,2013-01-29 20:51:00,
2013-01-29 20:56:00,53.9,52.2,29.59,North,351,0.0,1.0,94,0.00,,,0.03,WeatherCatV1.02B3,2013-01-29 20:56:00,
2013-01-29 21:01:00,53.9,52.2,29.59,NE,46,0.0,4.0,94,0.00,,,0.03,WeatherCatV1.02B3,2013-01-29 21:01:00,
2013-01-29 21:06:00,53.8,52.1,29.59,North,8,2.0,5.0,94,0.00,,,0.04,WeatherCatV1.02B3,2013-01-29 21:06:00,
2013-01-29 21:11:00,53.8,52.1,29.59,NNW,338,2.0,5.0,94,0.00,,,0.04,WeatherCatV1.02B3,2013-01-29 21:11:00,
2013-01-29 21:16:00,53.9,52.2,29.59,NE,37,1.0,3.0,94,0.00,,,0.04,WeatherCatV1.02B3,2013-01-29 21:16:00,
2013-01-29 21:21:00,54.0,52.3,29.59,ESE,102,1.0,4.0,94,0.00,,,0.04,WeatherCatV1.02B3,2013-01-29 21:21:00,
2013-01-29 21:26:00,54.0,52.3,29.58,NE,53,3.0,3.0,94,0.00,,,0.04,WeatherCatV1.02B3,2013-01-29 21:26:00,
2013-01-29 21:31:00,53.9,52.2,29.59,ENE,70,0.0,3.0,94,0.00,,,0.04,WeatherCatV1.02B3,2013-01-29 21:31:00,
2013-01-29 21:36:00,53.8,52.4,29.59,NE,34,0.0,2.0,95,0.00,,,0.04,WeatherCatV1.02B3,2013-01-29 21:36:00,
2013-01-29 21:41:00,53.7,52.3,29.58,NNW,347,1.0,3.0,95,0.00,,,0.04,WeatherCatV1.02B3,2013-01-29 21:41:00,
2013-01-29 21:46:00,53.7,52.3,29.58,NE,34,0.0,2.0,95,0.00,,,0.04,WeatherCatV1.02B3,2013-01-29 21:46:00,
2013-01-29 21:51:00,53.5,52.1,29.58,WNW,298,0.0,2.0,95,0.00,,,0.04,WeatherCatV1.02B3,2013-01-29 21:51:00,
2013-01-29 21:56:00,53.5,52.1,29.58,NNE,22,0.0,3.0,95,0.00,,,0.04,WeatherCatV1.02B3,2013-01-29 21:56:00,
2013-01-29 22:01:00,53.4,52.3,29.58,North,359,1.0,2.0,96,0.00,,,0.04,WeatherCatV1.02B3,2013-01-29 22:01:00,
2013-01-29 22:06:00,53.3,52.2,29.58,NNW,345,2.0,4.0,96,0.00,,,0.04,WeatherCatV1.02B3,2013-01-29 22:06:00,
2013-01-29 22:11:00,53.3,52.2,29.58,NNE,25,1.0,2.0,96,0.00,,,0.04,WeatherCatV1.02B3,2013-01-29 22:11:00,
2013-01-29 22:16:00,53.3,52.2,29.58,NNE,13,1.0,3.0,96,0.00,,,0.05,WeatherCatV1.02B3,2013-01-29 22:16:00,
2013-01-29 22:21:00,53.3,52.2,29.58,North,8,0.0,1.0,96,0.00,,,0.05,WeatherCatV1.02B3,2013-01-29 22:21:00,
2013-01-29 22:26:00,53.3,52.2,29.58,East,79,0.0,2.0,96,0.00,,,0.05,WeatherCatV1.02B3,2013-01-29 22:26:00,
2013-01-29 22:31:00,53.2,52.1,29.57,NE,49,0.0,3.0,96,0.00,,,0.05,WeatherCatV1.02B3,2013-01-29 22:31:00,
2013-01-29 22:36:00,53.2,52.1,29.57,NE,54,1.0,4.0,96,0.00,,,0.05,WeatherCatV1.02B3,2013-01-29 22:36:00,
2013-01-29 22:41:00,53.2,52.4,29.57,NNE,29,1.0,1.0,97,0.00,,,0.05,WeatherCatV1.02B3,2013-01-29 22:41:00,
2013-01-29 22:46:00,53.2,52.4,29.57,NE,46,3.0,5.0,97,0.00,,,0.05,WeatherCatV1.02B3,2013-01-29 22:46:00,
2013-01-29 22:51:00,53.2,52.4,29.57,NE,46,0.0,2.0,97,0.00,,,0.05,WeatherCatV1.02B3,2013-01-29 22:51:00,
2013-01-29 22:56:00,53.2,52.1,29.57,ESE,104,1.0,5.0,96,0.00,,,0.05,WeatherCatV1.02B3,2013-01-29 22:56:00,
2013-01-29 23:01:00,53.3,52.2,29.56,North,353,1.0,3.0,96,0.00,,,0.05,WeatherCatV1.02B3,2013-01-29 23:01:00,
2013-01-29 23:06:00,53.3,52.2,29.57,NE,56,0.0,5.0,96,0.00,,,0.05,WeatherCatV1.02B3,2013-01-29 23:06:00,
2013-01-29 23:11:00,53.3,52.2,29.57,NNW,346,0.0,1.0,96,0.00,,,0.05,WeatherCatV1.02B3,2013-01-29 23:11:00,
2013-01-29 23:16:00,53.3,52.2,29.57,NW,324,1.0,3.0,96,0.00,,,0.05,WeatherCatV1.02B3,2013-01-29 23:16:00,
2013-01-29 23:21:00,53.3,52.2,29.57,ESE,108,0.0,2.0,96,0.00,,,0.05,WeatherCatV1.02B3,2013-01-29 23:21:00,
2013-01-29 23:26:00,53.3,52.2,29.57,NW,320,0.0,0.0,96,0.00,,,0.05,WeatherCatV1.02B3,2013-01-29 23:26:00,
2013-01-29 23:29:00,53.3,52.2,29.57,North,11,1.0,2.0,96,0.00,,,0.05,WeatherCatV1.02B3,2013-01-29 23:29:00,
2013-01-29 23:34:00,53.3,52.2,29.57,East,89,0.0,1.0,96,0.00,,,0.05,WeatherCatV1.02B3,2013-01-29 23:34:00,
2013-01-29 23:39:00,53.3,52.2,29.56,NE,34,0.0,3.0,96,0.00,,,0.05,WeatherCatV1.02B3,2013-01-29 23:39:00,
2013-01-29 23:44:00,53.3,52.2,29.56,NNE,20,0.0,3.0,96,0.00,,,0.05,WeatherCatV1.02B3,2013-01-29 23:44:00,
2013-01-29 23:49:00,53.3,52.2,29.56,NNE,22,0.0,3.0,96,0.00,,,0.05,WeatherCatV1.02B3,2013-01-29 23:49:00,
2013-01-29 23:50:00,53.3,52.2,29.56,NE,40,1.0,3.0,96,0.00,,,0.00,WeatherCatV1.02B3,2013-01-29 23:50:00,
2013-01-29 23:55:00,53.2,52.1,29.56,NE,35,1.0,3.0,96,0.00,,,0.00,WeatherCatV1.02B3,2013-01-29 23:55:00,